Time;durP1;ratioP1;P1;durP2;ratioP2;P2;SDS_P1;SDS_P2;PMS_P1;PMS_P2;Temp;Humidity;BMP_temperature;BMP_pressure;BME280_temperature;BME280_humidity;BME280_pressure;Samples;Min_cycle;Max_cycle;Signal;HPM_P1;HPM_P2
2023/09/07 00:00:32;;;;;;;5.73;4.63;;;14.90;99.90;;;;;;496620;239;29371;-74
2023/09/07 00:02:34;;;;;;;4.87;4.37;;;14.90;99.90;;;;;;496590;239;28911;-73
2023/09/07 00:04:53;;;;;;;6.67;5.17;;;14.90;99.90;;;;;;496577;239;28894;-73
2023/09/07 00:06:54;;;;;;;13.50;4.57;;;15.00;99.90;;;;;;496607;239;28847;-73
2023/09/07 00:11:00;;;;;;;5.33;4.43;;;15.00;99.90;;;;;;496616;239;28850;-72
2023/09/07 00:13:02;;;;;;;6.03;5.00;;;15.00;99.90;;;;;;496617;239;28901;-74
2023/09/07 00:15:10;;;;;;;5.33;4.57;;;15.00;99.90;;;;;;496609;239;29354;-75
2023/09/07 00:17:11;;;;;;;5.80;4.40;;;15.00;99.90;;;;;;496574;239;28841;-75
2023/09/07 00:19:18;;;;;;;8.03;4.13;;;15.10;99.90;;;;;;496621;239;28882;-75
2023/09/07 00:21:19;;;;;;;5.17;4.67;;;15.10;99.90;;;;;;496612;239;28884;-74
2023/09/07 00:23:28;;;;;;;5.20;3.70;;;15.20;99.90;;;;;;496596;239;28970;-73
2023/09/07 00:25:29;;;;;;;4.70;4.30;;;15.20;99.90;;;;;;496630;239;28810;-75
2023/09/07 00:27:40;;;;;;;4.57;4.17;;;15.30;99.90;;;;;;496616;239;29311;-72
2023/09/07 00:29:41;;;;;;;4.90;4.40;;;15.30;99.90;;;;;;496585;239;28929;-74
2023/09/07 00:31:42;;;;;;;5.70;4.43;;;15.40;99.90;;;;;;496597;239;29054;-73
2023/09/07 00:33:46;;;;;;;4.93;3.90;;;15.40;99.90;;;;;;496602;239;28835;-74
2023/09/07 00:35:48;;;;;;;4.87;4.47;;;15.40;99.90;;;;;;496578;239;28798;-75
2023/09/07 00:37:49;;;;;;;5.93;4.50;;;15.40;99.90;;;;;;496595;239;28827;-75
2023/09/07 00:39:52;;;;;;;4.27;3.87;;;15.40;99.90;;;;;;496611;239;28795;-73
2023/09/07 00:42:00;;;;;;;4.03;3.73;;;15.40;99.90;;;;;;496589;239;28823;-74
2023/09/07 00:44:02;;;;;;;4.47;4.07;;;15.40;99.90;;;;;;496581;239;28891;-76
2023/09/07 00:46:06;;;;;;;5.47;4.03;;;15.40;99.90;;;;;;496583;239;28879;-75
2023/09/07 00:48:07;;;;;;;5.30;4.17;;;15.50;99.90;;;;;;496616;239;28812;-76
2023/09/07 00:50:18;;;;;;;4.03;3.63;;;15.50;99.90;;;;;;496547;239;28929;-75
2023/09/07 00:52:19;;;;;;;4.77;3.90;;;15.40;99.90;;;;;;496581;239;28939;-75
2023/09/07 00:54:20;;;;;;;4.57;3.87;;;15.50;99.90;;;;;;496625;239;28857;-75
2023/09/07 00:56:22;;;;;;;4.50;4.10;;;15.50;99.90;;;;;;496615;239;29241;-75
2023/09/07 00:58:23;;;;;;;5.67;4.00;;;15.50;99.90;;;;;;496590;239;29315;-73
2023/09/07 01:00:33;;;;;;;4.90;4.40;;;15.50;99.90;;;;;;496586;239;29245;-74
2023/09/07 01:02:34;;;;;;;4.80;4.17;;;15.40;99.90;;;;;;496583;239;28823;-74
2023/09/07 01:04:39;;;;;;;4.97;4.50;;;15.20;99.90;;;;;;496606;239;28835;-77
2023/09/07 01:06:40;;;;;;;4.43;4.13;;;15.10;99.90;;;;;;496613;239;28918;-73
2023/09/07 01:08:41;;;;;;;5.13;4.63;;;14.90;99.90;;;;;;496625;239;28939;-75
2023/09/07 01:10:42;;;;;;;5.50;5.00;;;14.80;99.90;;;;;;496575;239;28819;-75
2023/09/07 01:12:44;;;;;;;6.43;4.70;;;14.70;99.90;;;;;;496588;239;28907;-73
2023/09/07 01:14:48;;;;;;;5.33;4.80;;;14.60;99.90;;;;;;496604;239;29366;-75
2023/09/07 01:16:49;;;;;;;6.30;4.73;;;14.50;99.90;;;;;;496574;239;28842;-75
2023/09/07 01:18:51;;;;;;;5.73;5.13;;;14.30;99.90;;;;;;496557;239;28802;-74
2023/09/07 01:20:52;;;;;;;6.33;5.47;;;14.20;99.90;;;;;;496641;239;29317;-73
2023/09/07 01:22:59;;;;;;;5.47;4.97;;;14.20;99.90;;;;;;496602;239;29321;-74
2023/09/07 01:25:01;;;;;;;5.77;5.17;;;14.10;99.90;;;;;;496587;239;28820;-73
2023/09/07 01:27:03;;;;;;;6.60;5.00;;;14.10;99.90;;;;;;496544;239;28906;-72
2023/09/07 01:29:04;;;;;;;5.90;5.30;;;14.00;99.90;;;;;;496603;239;28856;-75
2023/09/07 01:31:12;;;;;;;5.70;4.80;;;13.90;99.90;;;;;;496593;239;29433;-73
2023/09/07 01:33:13;;;;;;;5.10;4.60;;;13.90;99.90;;;;;;496610;239;28815;-75
2023/09/07 01:35:14;;;;;;;5.17;4.70;;;13.90;99.90;;;;;;496610;239;28858;-73
2023/09/07 01:37:24;;;;;;;5.70;4.90;;;13.90;99.90;;;;;;496571;239;29326;-74
2023/09/07 01:39:26;;;;;;;9.03;5.03;;;13.80;99.90;;;;;;496605;235;28871;-74
2023/09/07 01:41:28;;;;;;;6.10;5.50;;;13.80;99.90;;;;;;496439;239;28805;-73
2023/09/07 01:43:28;;;;;;;6.60;4.73;;;13.80;99.90;;;;;;496608;239;29344;-73
2023/09/07 01:45:29;;;;;;;10.50;4.70;;;13.80;99.90;;;;;;496636;239;29412;-73
2023/09/07 01:47:31;;;;;;;6.07;4.80;;;13.80;99.90;;;;;;496636;239;29257;-74
2023/09/07 01:49:32;;;;;;;4.87;4.47;;;13.70;99.90;;;;;;496587;239;28846;-78
2023/09/07 01:51:34;;;;;;;4.73;4.20;;;13.70;99.90;;;;;;496633;239;28848;-74
2023/09/07 01:53:35;;;;;;;5.43;4.90;;;13.70;99.90;;;;;;496603;239;28306;-74
2023/09/07 01:55:36;;;;;;;4.97;4.47;;;13.80;99.90;;;;;;496623;239;28429;-74
2023/09/07 01:57:39;;;;;;;4.77;3.97;;;13.90;99.90;;;;;;496606;239;28891;-73
2023/09/07 01:59:40;;;;;;;5.10;4.60;;;14.10;99.90;;;;;;496528;239;28524;-74
2023/09/07 02:01:42;;;;;;;3.90;3.60;;;14.30;99.90;;;;;;496632;239;28835;-72
2023/09/07 02:03:43;;;;;;;4.70;4.30;;;14.50;99.90;;;;;;496588;239;28466;-73
2023/09/07 02:05:45;;;;;;;5.17;4.20;;;14.80;99.90;;;;;;496545;239;28865;-76
2023/09/07 02:07:49;;;;;;;4.43;3.67;;;15.10;99.90;;;;;;496629;239;28850;-75
2023/09/07 02:09:51;;;;;;;4.73;4.30;;;15.20;99.90;;;;;;496612;239;29295;-73
2023/09/07 02:11:52;;;;;;;4.83;4.10;;;15.40;99.90;;;;;;496566;239;28839;-76
2023/09/07 02:13:53;;;;;;;4.60;4.10;;;15.80;99.90;;;;;;496598;239;28808;-75
2023/09/07 02:15:58;;;;;;;4.73;4.33;;;16.00;99.90;;;;;;496589;239;29272;-74
2023/09/07 02:17:59;;;;;;;6.43;4.07;;;16.10;99.90;;;;;;496605;239;28877;-73
2023/09/07 02:20:12;;;;;;;10.10;4.80;;;16.20;99.90;;;;;;496622;239;28890;-72
2023/09/07 02:22:14;;;;;;;5.47;4.60;;;16.00;99.90;;;;;;496610;239;28822;-75
2023/09/07 02:24:21;;;;;;;5.03;4.33;;;15.90;99.90;;;;;;496584;239;28827;-76
2023/09/07 02:26:22;;;;;;;4.60;4.20;;;15.80;99.90;;;;;;496588;239;28889;-76
2023/09/07 02:28:27;;;;;;;4.70;4.17;;;15.70;99.90;;;;;;496554;239;28871;-74
2023/09/07 02:30:28;;;;;;;5.40;4.20;;;15.70;99.90;;;;;;496619;239;28836;-74
2023/09/07 02:32:29;;;;;;;4.83;3.97;;;15.70;99.90;;;;;;496576;239;28798;-76
2023/09/07 02:34:31;;;;;;;5.10;4.30;;;15.80;99.90;;;;;;496576;239;29314;-75
2023/09/07 02:36:32;;;;;;;5.70;4.33;;;16.00;99.90;;;;;;496562;239;30136;-76
2023/09/07 02:38:33;;;;;;;4.73;3.80;;;16.30;99.90;;;;;;496609;239;29245;-75
2023/09/07 02:40:41;;;;;;;5.77;4.30;;;16.30;99.90;;;;;;496596;239;28912;-76
2023/09/07 02:42:42;;;;;;;8.07;4.07;;;16.40;99.90;;;;;;496574;239;28882;-76
2023/09/07 02:44:43;;;;;;;7.47;4.07;;;16.60;99.90;;;;;;496578;239;28844;-76
2023/09/07 02:46:44;;;;;;;5.57;3.70;;;16.70;99.90;;;;;;496589;239;28864;-79
2023/09/07 02:48:45;;;;;;;5.97;3.77;;;16.70;99.90;;;;;;496589;239;28788;-76
2023/09/07 02:50:48;;;;;;;5.60;4.30;;;16.70;99.90;;;;;;496608;239;28924;-72
2023/09/07 02:52:48;;;;;;;5.23;4.70;;;16.80;99.90;;;;;;496591;239;28806;-75
2023/09/07 02:54:49;;;;;;;4.93;4.43;;;16.40;99.90;;;;;;496635;239;28892;-73
2023/09/07 02:56:50;;;;;;;7.23;4.70;;;15.60;99.90;;;;;;496626;239;29280;-75
2023/09/07 02:58:55;;;;;;;4.63;4.03;;;15.10;99.90;;;;;;496623;239;29413;-72
2023/09/07 03:00:56;;;;;;;5.57;4.13;;;14.70;99.90;;;;;;496635;239;28927;-77
2023/09/07 03:02:58;;;;;;;6.97;4.30;;;14.40;99.90;;;;;;496630;239;28892;-73
2023/09/07 03:04:59;;;;;;;7.47;4.80;;;14.20;99.90;;;;;;496575;239;29334;-73
2023/09/07 03:07:06;;;;;;;7.53;4.27;;;14.00;99.90;;;;;;496579;235;29244;-74
2023/09/07 03:09:08;;;;;;;4.93;4.30;;;13.90;99.90;;;;;;496611;239;28902;-73
2023/09/07 03:11:08;;;;;;;4.90;4.50;;;13.80;99.90;;;;;;496612;239;28860;-75
2023/09/07 03:13:10;;;;;;;4.70;4.20;;;13.60;99.90;;;;;;496620;239;29213;-73
2023/09/07 03:15:14;;;;;;;4.63;4.20;;;13.50;99.90;;;;;;496584;239;29317;-73
2023/09/07 03:17:16;;;;;;;5.10;4.60;;;13.50;99.90;;;;;;496551;239;28848;-73
2023/09/07 03:19:16;;;;;;;5.33;4.80;;;13.40;99.90;;;;;;496591;239;28496;-73
2023/09/07 03:21:18;;;;;;;8.33;4.77;;;13.60;99.90;;;;;;496610;239;29102;-72
2023/09/07 03:23:23;;;;;;;4.77;4.37;;;13.90;99.90;;;;;;496644;239;29016;-73
2023/09/07 03:25:23;;;;;;;6.37;4.93;;;13.80;99.90;;;;;;496588;239;28499;-74
2023/09/07 03:27:34;;;;;;;5.90;4.93;;;14.10;99.90;;;;;;496634;239;28820;-73
2023/09/07 03:29:35;;;;;;;4.83;4.43;;;14.40;99.90;;;;;;496596;239;28636;-73
2023/09/07 03:31:38;;;;;;;10.17;5.07;;;14.70;99.90;;;;;;496561;239;28506;-73
2023/09/07 03:33:40;;;;;;;6.00;4.07;;;15.00;99.90;;;;;;496594;239;28831;-75
2023/09/07 03:35:47;;;;;;;5.87;4.17;;;15.40;99.90;;;;;;496611;239;29136;-74
2023/09/07 03:37:48;;;;;;;4.87;4.10;;;15.40;99.90;;;;;;496607;239;28870;-73
2023/09/07 03:39:52;;;;;;;6.50;4.70;;;15.40;99.90;;;;;;496599;239;28947;-73
2023/09/07 03:41:53;;;;;;;6.00;4.40;;;15.30;99.90;;;;;;496579;239;28979;-73
2023/09/07 03:44:01;;;;;;;5.80;4.80;;;15.30;99.90;;;;;;496603;239;28848;-75
2023/09/07 03:46:02;;;;;;;5.00;4.50;;;14.90;99.90;;;;;;496537;239;28799;-75
2023/09/07 03:48:05;;;;;;;9.17;4.77;;;14.60;99.90;;;;;;496539;239;28839;-75
2023/09/07 03:50:06;;;;;;;5.37;4.40;;;14.60;99.90;;;;;;496613;239;28858;-76
2023/09/07 03:52:08;;;;;;;5.47;4.97;;;15.10;99.90;;;;;;496608;239;29406;-75
2023/09/07 03:54:09;;;;;;;5.43;4.93;;;15.20;99.90;;;;;;496617;239;28910;-76
2023/09/07 03:56:14;;;;;;;4.77;4.20;;;15.40;99.90;;;;;;496581;239;28887;-74
2023/09/07 03:58:15;;;;;;;4.60;4.20;;;15.70;99.90;;;;;;496585;239;28930;-75
2023/09/07 04:00:19;;;;;;;4.73;4.27;;;15.80;99.90;;;;;;496617;239;28844;-76
2023/09/07 04:02:21;;;;;;;12.20;4.40;;;15.80;99.90;;;;;;496593;239;28792;-75
2023/09/07 04:04:22;;;;;;;4.73;4.23;;;15.90;99.90;;;;;;496551;239;29641;-75
2023/09/07 04:06:25;;;;;;;5.00;3.97;;;15.90;99.90;;;;;;496571;239;29495;-75
2023/09/07 04:08:26;;;;;;;5.40;4.10;;;16.10;99.90;;;;;;496573;239;28965;-75
2023/09/07 04:10:28;;;;;;;4.37;3.83;;;16.20;99.90;;;;;;496563;239;28944;-75
2023/09/07 04:12:33;;;;;;;4.63;4.20;;;16.10;99.90;;;;;;496543;239;29385;-75
2023/09/07 04:14:33;;;;;;;5.00;4.23;;;16.10;99.90;;;;;;496580;239;28950;-76
2023/09/07 04:16:37;;;;;;;4.70;4.03;;;16.20;99.90;;;;;;496603;239;28957;-75
2023/09/07 04:18:38;;;;;;;6.63;4.53;;;16.20;99.90;;;;;;496565;239;28848;-72
2023/09/07 04:20:42;;;;;;;4.60;3.90;;;16.50;99.90;;;;;;496555;239;29256;-76
2023/09/07 04:22:43;;;;;;;4.97;4.57;;;16.50;99.90;;;;;;496594;239;28864;-76
2023/09/07 04:24:44;;;;;;;4.87;4.23;;;16.30;99.90;;;;;;496594;239;28878;-73
2023/09/07 04:26:46;;;;;;;4.13;3.83;;;16.30;99.90;;;;;;496589;239;29300;-73
2023/09/07 04:28:53;;;;;;;5.33;4.77;;;16.30;99.90;;;;;;496568;239;29281;-75
2023/09/07 04:30:54;;;;;;;4.30;3.90;;;16.30;99.90;;;;;;496595;239;28917;-73
2023/09/07 04:33:05;;;;;;;5.90;4.43;;;16.10;99.90;;;;;;496603;239;29358;-74
2023/09/07 04:35:07;;;;;;;6.00;4.67;;;16.00;99.90;;;;;;496564;239;28941;-73
2023/09/07 04:37:07;;;;;;;5.97;4.00;;;16.00;99.90;;;;;;496592;239;28808;-75
2023/09/07 04:39:08;;;;;;;4.63;4.20;;;15.90;99.90;;;;;;496622;239;29284;-72
2023/09/07 04:41:13;;;;;;;5.30;4.80;;;15.70;99.90;;;;;;496643;239;29415;-75
2023/09/07 04:43:14;;;;;;;4.53;4.13;;;15.70;99.90;;;;;;496656;239;28808;-75
2023/09/07 04:45:15;;;;;;;4.93;4.43;;;15.70;99.90;;;;;;496612;239;28814;-72
2023/09/07 04:47:16;;;;;;;5.97;4.40;;;15.70;99.90;;;;;;496592;239;29347;-75
2023/09/07 04:49:18;;;;;;;6.10;4.40;;;15.70;99.90;;;;;;496649;239;29300;-75
2023/09/07 04:51:21;;;;;;;5.47;4.60;;;15.90;99.90;;;;;;496598;239;29289;-75
2023/09/07 04:53:21;;;;;;;7.00;4.63;;;15.90;99.90;;;;;;496453;239;28793;-75
2023/09/07 04:55:24;;;;;;;5.10;4.60;;;16.00;99.90;;;;;;496574;239;28883;-74
2023/09/07 04:57:25;;;;;;;5.03;4.47;;;15.90;99.90;;;;;;496625;239;28847;-73
2023/09/07 04:59:29;;;;;;;7.50;5.13;;;16.00;99.90;;;;;;496648;239;29334;-74
2023/09/07 05:01:32;;;;;;;4.67;4.27;;;15.80;99.90;;;;;;496690;239;28920;-76
2023/09/07 05:03:32;;;;;;;4.60;4.13;;;15.30;99.90;;;;;;496596;239;28848;-73
2023/09/07 05:05:33;;;;;;;4.73;3.97;;;14.90;99.90;;;;;;496614;239;29268;-75
2023/09/07 05:07:40;;;;;;;7.00;4.03;;;14.60;99.90;;;;;;496634;239;29383;-74
2023/09/07 05:09:42;;;;;;;5.43;4.40;;;14.40;99.90;;;;;;496616;239;28811;-75
2023/09/07 05:11:50;;;;;;;4.90;4.40;;;14.20;99.90;;;;;;496601;239;28939;-74
2023/09/07 05:13:57;;;;;;;5.10;4.70;;;14.20;99.90;;;;;;496614;239;28915;-73
2023/09/07 05:15:58;;;;;;;4.70;4.30;;;14.10;99.90;;;;;;496671;239;28551;-76
2023/09/07 05:18:08;;;;;;;4.80;4.40;;;14.10;99.90;;;;;;496650;239;28899;-73
2023/09/07 05:20:10;;;;;;;4.23;3.83;;;14.00;99.90;;;;;;496640;239;28807;-74
2023/09/07 05:22:11;;;;;;;4.93;4.50;;;13.90;99.90;;;;;;496600;239;28891;-76
2023/09/07 05:24:12;;;;;;;4.40;4.00;;;13.90;99.90;;;;;;496596;239;30002;-73
2023/09/07 05:26:16;;;;;;;4.60;4.17;;;13.80;99.90;;;;;;496604;239;29254;-74
2023/09/07 05:28:18;;;;;;;4.87;4.43;;;13.80;99.90;;;;;;496613;239;28798;-72
2023/09/07 05:30:19;;;;;;;4.47;4.07;;;13.80;99.90;;;;;;496629;239;29100;-73
2023/09/07 05:32:20;;;;;;;5.50;4.33;;;13.90;99.90;;;;;;496621;239;29457;-73
2023/09/07 05:34:22;;;;;;;9.33;4.53;;;14.00;99.90;;;;;;496629;239;28940;-76
2023/09/07 05:36:23;;;;;;;4.80;4.37;;;14.00;99.90;;;;;;496602;239;28423;-76
2023/09/07 05:38:26;;;;;;;6.20;3.90;;;14.00;99.90;;;;;;496557;239;28854;-75
2023/09/07 05:40:28;;;;;;;6.17;5.20;;;14.00;99.90;;;;;;496609;239;28840;-75
2023/09/07 05:42:38;;;;;;;5.30;4.80;;;14.00;99.90;;;;;;496606;239;29419;-74
2023/09/07 05:44:39;;;;;;;5.20;4.77;;;14.10;99.90;;;;;;496612;239;28836;-73
2023/09/07 05:46:47;;;;;;;5.33;4.83;;;14.00;99.90;;;;;;496548;239;28595;-73
2023/09/07 05:48:47;;;;;;;5.80;4.50;;;14.00;99.90;;;;;;496594;239;28872;-74
2023/09/07 05:50:48;;;;;;;4.83;4.33;;;14.00;99.90;;;;;;496577;239;28480;-75
2023/09/07 05:52:50;;;;;;;4.27;3.87;;;14.00;99.90;;;;;;496630;239;29243;-73
2023/09/07 05:54:54;;;;;;;5.00;4.60;;;14.00;99.90;;;;;;496625;239;28997;-74
2023/09/07 05:56:55;;;;;;;7.87;7.03;;;14.00;99.90;;;;;;496598;239;28418;-73
2023/09/07 05:58:57;;;;;;;18.20;12.70;;;14.10;99.90;;;;;;496550;239;29201;-73
2023/09/07 06:00:58;;;;;;;24.00;16.80;;;14.10;99.90;;;;;;496591;239;28972;-74
2023/09/07 06:02:59;;;;;;;27.33;17.70;;;14.20;99.90;;;;;;496600;239;28632;-73
2023/09/07 06:05:00;;;;;;;21.47;15.20;;;14.20;99.90;;;;;;496591;239;28958;-73
2023/09/07 06:07:02;;;;;;;20.07;14.23;;;14.30;99.90;;;;;;496541;239;28407;-73
2023/09/07 06:09:03;;;;;;;16.90;12.90;;;14.30;99.90;;;;;;496582;239;28826;-73
2023/09/07 06:11:13;;;;;;;15.50;11.40;;;14.40;99.90;;;;;;496555;239;29019;-74
2023/09/07 06:13:14;;;;;;;17.80;12.53;;;14.40;99.90;;;;;;496551;239;28582;-76
2023/09/07 06:15:16;;;;;;;13.80;9.80;;;14.50;99.90;;;;;;496455;238;29331;-71
2023/09/07 06:17:17;;;;;;;11.40;9.60;;;14.50;99.90;;;;;;496558;239;29041;-73
2023/09/07 06:19:18;;;;;;;12.23;7.90;;;14.50;99.90;;;;;;496592;239;28895;-73
2023/09/07 06:21:19;;;;;;;11.67;7.20;;;14.50;99.90;;;;;;496579;239;28827;-76
2023/09/07 06:23:20;;;;;;;7.50;5.87;;;14.60;99.90;;;;;;496580;239;28821;-76
2023/09/07 06:25:22;;;;;;;7.30;6.40;;;14.70;99.90;;;;;;496538;239;29392;-75
2023/09/07 06:27:23;;;;;;;6.43;5.83;;;14.70;99.90;;;;;;496599;239;28872;-77
2023/09/07 06:29:24;;;;;;;6.20;5.60;;;14.80;99.90;;;;;;496600;239;28879;-75
2023/09/07 06:31:26;;;;;;;6.50;5.90;;;14.80;99.90;;;;;;496604;239;28911;-73
2023/09/07 06:33:27;;;;;;;5.90;5.40;;;14.80;99.90;;;;;;496556;239;28863;-74
2023/09/07 06:35:28;;;;;;;5.90;5.30;;;14.80;99.90;;;;;;496611;239;29358;-72
2023/09/07 06:37:40;;;;;;;9.23;5.80;;;14.90;99.90;;;;;;496621;239;29399;-73
2023/09/07 06:39:43;;;;;;;5.37;4.87;;;14.90;99.90;;;;;;496578;239;28943;-73
2023/09/07 06:41:41;;;;;;;5.07;4.63;;;14.90;99.90;;;;;;496563;239;28818;-73
2023/09/07 06:43:42;;;;;;;6.93;4.93;;;14.90;99.90;;;;;;496574;239;29282;-76
2023/09/07 06:45:43;;;;;;;5.33;4.20;;;15.00;99.90;;;;;;496573;239;29368;-76
2023/09/07 06:47:45;;;;;;;5.57;4.70;;;15.00;99.90;;;;;;496578;239;29347;-73
2023/09/07 06:49:46;;;;;;;7.13;5.50;;;15.10;99.90;;;;;;496569;239;28845;-73
2023/09/07 06:51:47;;;;;;;4.77;4.37;;;15.20;99.90;;;;;;496615;239;28873;-78
2023/09/07 06:55:53;;;;;;;5.13;4.73;;;15.30;99.90;;;;;;496589;239;28877;-72
2023/09/07 06:57:55;;;;;;;5.00;4.50;;;15.30;99.90;;;;;;496543;239;28866;-76
2023/09/07 06:59:55;;;;;;;5.40;4.70;;;15.40;99.90;;;;;;496556;239;28942;-76
2023/09/07 07:01:59;;;;;;;4.67;4.27;;;15.40;99.90;;;;;;496598;239;28798;-76
2023/09/07 07:03:58;;;;;;;5.80;5.10;;;15.50;99.90;;;;;;496556;239;28890;-73
2023/09/07 07:05:59;;;;;;;8.33;4.70;;;15.60;99.90;;;;;;496572;239;28857;-75
2023/09/07 07:08:09;;;;;;;4.80;4.30;;;15.60;99.90;;;;;;496534;239;29273;-76
2023/09/07 07:10:10;;;;;;;4.53;4.03;;;15.70;99.90;;;;;;496602;239;28861;-75
2023/09/07 07:12:13;;;;;;;4.93;4.43;;;15.80;99.90;;;;;;496571;239;28906;-73
2023/09/07 07:14:14;;;;;;;5.23;4.73;;;15.80;99.90;;;;;;496580;239;28830;-73
2023/09/07 07:16:18;;;;;;;5.20;4.70;;;15.90;99.90;;;;;;496506;238;28797;-73
2023/09/07 07:18:19;;;;;;;4.80;4.40;;;16.00;99.90;;;;;;496625;239;28874;-78
2023/09/07 07:20:23;;;;;;;5.90;4.33;;;16.10;99.90;;;;;;496586;239;28908;-75
2023/09/07 07:22:24;;;;;;;7.00;4.93;;;16.10;99.90;;;;;;496583;239;28827;-75
2023/09/07 07:24:29;;;;;;;5.70;5.10;;;16.30;99.90;;;;;;496549;239;28784;-75
2023/09/07 07:26:30;;;;;;;5.30;4.80;;;16.40;99.90;;;;;;496584;239;28842;-77
2023/09/07 07:30:55;;;;;;;5.53;5.00;;;16.60;99.90;;;;;;496580;239;28829;-75
2023/09/07 07:33:04;;;;;;;5.40;4.90;;;16.70;99.90;;;;;;496600;239;28828;-76
2023/09/07 07:35:03;;;;;;;5.20;4.70;;;16.80;99.90;;;;;;496595;239;28938;-75
2023/09/07 07:37:13;;;;;;;5.10;4.60;;;16.80;99.90;;;;;;496588;239;28855;-76
2023/09/07 07:39:15;;;;;;;7.70;5.17;;;16.80;99.90;;;;;;496595;239;28938;-76
2023/09/07 07:41:16;;;;;;;6.70;5.40;;;17.40;99.90;;;;;;496555;239;28889;-75
2023/09/07 07:43:17;;;;;;;5.97;5.07;;;17.70;99.90;;;;;;496592;239;28836;-73
2023/09/07 07:45:22;;;;;;;8.40;4.47;;;18.20;99.90;;;;;;496618;239;29306;-75
2023/09/07 07:47:26;;;;;;;4.67;3.93;;;18.70;99.90;;;;;;496572;239;29443;-73
2023/09/07 07:49:25;;;;;;;6.90;4.60;;;18.60;99.90;;;;;;496586;239;29366;-75
2023/09/07 07:51:26;;;;;;;5.80;4.47;;;18.90;99.90;;;;;;496612;239;28926;-72
2023/09/07 07:53:36;;;;;;;7.10;4.53;;;19.20;99.90;;;;;;496595;239;28837;-76
2023/09/07 07:55:38;;;;;;;5.07;4.60;;;19.30;99.90;;;;;;496568;239;28852;-74
2023/09/07 07:57:39;;;;;;;5.43;4.63;;;19.30;99.90;;;;;;496547;239;28788;-76
2023/09/07 07:59:40;;;;;;;12.60;5.00;;;19.40;99.90;;;;;;496606;239;29280;-76
2023/09/07 08:01:41;;;;;;;5.30;4.80;;;19.50;99.90;;;;;;496585;239;29252;-76
2023/09/07 08:03:46;;;;;;;5.00;4.50;;;19.40;99.90;;;;;;496566;239;29357;-74
2023/09/07 08:05:47;;;;;;;6.87;5.03;;;19.60;99.90;;;;;;496573;239;28884;-74
2023/09/07 08:07:54;;;;;;;5.23;4.70;;;19.80;99.90;;;;;;496592;239;28830;-75
2023/09/07 08:09:55;;;;;;;6.53;4.70;;;19.90;99.90;;;;;;496559;239;28854;-74
2023/09/07 08:12:03;;;;;;;6.47;4.40;;;19.90;99.90;;;;;;496611;239;29366;-75
2023/09/07 08:14:04;;;;;;;5.20;4.80;;;20.10;99.90;;;;;;496611;239;28801;-76
2023/09/07 08:16:05;;;;;;;8.33;5.33;;;20.20;99.90;;;;;;496605;239;28914;-74
2023/09/07 08:18:09;;;;;;;6.00;4.83;;;20.20;99.90;;;;;;496582;239;29242;-73
2023/09/07 08:20:11;;;;;;;5.27;4.77;;;20.30;99.90;;;;;;496637;239;28839;-75
2023/09/07 08:22:21;;;;;;;8.47;5.20;;;20.20;99.90;;;;;;496608;239;28914;-74
2023/09/07 08:24:22;;;;;;;5.27;4.73;;;20.20;99.90;;;;;;496575;239;28829;-75
2023/09/07 08:26:23;;;;;;;5.50;5.00;;;20.20;99.90;;;;;;496573;239;28848;-74
2023/09/07 08:28:25;;;;;;;8.87;4.87;;;20.30;99.90;;;;;;496610;239;28954;-75
2023/09/07 08:30:26;;;;;;;7.63;5.10;;;20.10;99.90;;;;;;496671;239;28870;-75
2023/09/07 08:32:27;;;;;;;5.50;4.77;;;20.40;99.90;;;;;;496605;239;29349;-75
2023/09/07 08:34:28;;;;;;;8.67;5.20;;;20.50;99.90;;;;;;496580;239;29310;-73
2023/09/07 08:36:42;;;;;;;4.97;4.43;;;20.50;99.90;;;;;;496618;239;29355;-76
2023/09/07 08:38:43;;;;;;;6.67;4.80;;;20.50;99.90;;;;;;496588;239;28823;-74
2023/09/07 08:40:46;;;;;;;5.20;4.70;;;20.50;99.90;;;;;;496593;239;28833;-75
2023/09/07 08:42:46;;;;;;;7.30;5.37;;;20.50;99.90;;;;;;496611;239;29309;-76
2023/09/07 08:44:53;;;;;;;7.40;4.57;;;20.50;99.90;;;;;;496597;239;29293;-75
2023/09/07 08:46:54;;;;;;;7.63;5.33;;;20.40;99.90;;;;;;496604;239;28817;-76
2023/09/07 08:49:02;;;;;;;7.60;5.07;;;20.50;99.90;;;;;;496543;239;28953;-75
2023/09/07 08:51:03;;;;;;;5.20;4.70;;;20.50;99.90;;;;;;496569;239;28805;-74
2023/09/07 08:53:04;;;;;;;9.47;4.50;;;20.50;99.90;;;;;;496627;239;28832;-74
2023/09/07 08:55:05;;;;;;;9.00;4.40;;;20.40;99.90;;;;;;496612;239;29275;-74
2023/09/07 08:57:12;;;;;;;9.57;4.70;;;20.50;99.90;;;;;;496583;239;29290;-74
2023/09/07 08:59:14;;;;;;;9.07;4.90;;;20.70;99.90;;;;;;496580;239;28829;-74
2023/09/07 09:01:15;;;;;;;7.47;5.27;;;20.60;99.90;;;;;;496582;239;28878;-74
2023/09/07 09:03:16;;;;;;;5.57;4.70;;;20.60;99.90;;;;;;496626;239;29238;-75
2023/09/07 09:05:20;;;;;;;8.80;5.07;;;20.50;99.90;;;;;;496569;239;29287;-74
2023/09/07 09:07:22;;;;;;;7.30;5.30;;;20.70;99.90;;;;;;496573;239;28919;-74
2023/09/07 09:09:30;;;;;;;5.73;4.90;;;21.00;99.90;;;;;;496611;239;28845;-73
2023/09/07 09:11:31;;;;;;;5.17;4.67;;;21.00;99.90;;;;;;496586;239;28797;-74
2023/09/07 09:13:38;;;;;;;5.80;4.70;;;21.30;99.90;;;;;;496530;239;29426;-75
2023/09/07 09:15:39;;;;;;;9.40;5.20;;;21.40;99.90;;;;;;496599;239;28874;-78
2023/09/07 09:17:40;;;;;;;6.60;4.60;;;21.40;99.90;;;;;;496602;239;29230;-73
2023/09/07 09:19:42;;;;;;;5.73;5.07;;;21.50;99.90;;;;;;496595;239;29234;-74
2023/09/07 09:21:45;;;;;;;5.57;4.97;;;21.50;99.90;;;;;;496576;239;29335;-74
2023/09/07 09:23:46;;;;;;;5.43;4.90;;;21.50;99.90;;;;;;496583;239;28866;-75
2023/09/07 09:25:47;;;;;;;6.37;5.10;;;21.70;99.90;;;;;;496624;239;28846;-74
2023/09/07 09:27:49;;;;;;;9.07;4.70;;;21.70;99.90;;;;;;496597;239;29351;-75
2023/09/07 09:30:04;;;;;;;6.40;4.63;;;21.80;99.90;;;;;;496592;239;29300;-73
2023/09/07 09:32:04;;;;;;;4.43;4.03;;;21.80;99.90;;;;;;496588;239;28859;-75
2023/09/07 09:34:05;;;;;;;5.10;4.60;;;21.80;99.90;;;;;;496590;239;28799;-74
2023/09/07 09:36:06;;;;;;;5.10;4.33;;;21.90;99.90;;;;;;496609;239;29240;-74
2023/09/07 09:38:13;;;;;;;4.87;4.23;;;21.90;99.90;;;;;;496583;239;29415;-74
2023/09/07 09:40:14;;;;;;;5.83;5.23;;;21.90;99.90;;;;;;496592;239;28956;-74
2023/09/07 09:42:15;;;;;;;7.30;5.00;;;22.20;99.90;;;;;;496551;239;28866;-74
2023/09/07 09:44:17;;;;;;;4.93;4.40;;;22.20;99.90;;;;;;496627;239;29242;-75
2023/09/07 09:46:18;;;;;;;6.90;4.83;;;22.30;99.90;;;;;;496602;239;29320;-75
2023/09/07 09:48:20;;;;;;;5.90;4.77;;;22.20;99.90;;;;;;496586;239;29311;-74
2023/09/07 09:50:23;;;;;;;5.17;4.67;;;22.40;99.90;;;;;;496592;239;28868;-75
2023/09/07 09:52:25;;;;;;;6.77;5.00;;;22.20;99.90;;;;;;496601;239;28906;-75
2023/09/07 09:54:27;;;;;;;6.50;4.70;;;22.20;99.90;;;;;;496587;239;29333;-75
2023/09/07 09:56:28;;;;;;;5.43;4.90;;;22.20;99.90;;;;;;496601;239;28865;-74
2023/09/07 09:58:29;;;;;;;5.80;4.53;;;22.30;99.90;;;;;;496580;239;28902;-74
2023/09/07 10:00:31;;;;;;;5.00;4.50;;;22.50;99.90;;;;;;496585;239;29260;-75
2023/09/07 10:02:32;;;;;;;5.73;4.73;;;22.60;99.90;;;;;;496624;239;29301;-78
2023/09/07 10:04:33;;;;;;;4.80;4.40;;;22.70;99.90;;;;;;496626;239;29248;-76
2023/09/07 10:06:40;;;;;;;4.80;4.37;;;22.60;99.90;;;;;;496595;239;28872;-74
2023/09/07 10:08:42;;;;;;;6.70;5.33;;;22.70;99.90;;;;;;496572;239;28823;-75
2023/09/07 10:10:43;;;;;;;5.20;4.70;;;22.60;99.90;;;;;;496565;239;28839;-75
2023/09/07 10:12:44;;;;;;;5.07;4.57;;;22.90;99.90;;;;;;496630;239;29292;-74
2023/09/07 10:14:51;;;;;;;5.43;4.93;;;23.00;99.90;;;;;;496629;239;29231;-75
2023/09/07 10:16:51;;;;;;;4.60;4.20;;;23.20;99.90;;;;;;496566;239;28786;-74
2023/09/07 10:18:51;;;;;;;5.47;4.97;;;23.20;99.90;;;;;;496588;239;28887;-76
2023/09/07 10:20:53;;;;;;;4.97;4.50;;;23.20;99.90;;;;;;496650;239;29246;-74
2023/09/07 10:22:57;;;;;;;5.77;4.83;;;23.00;99.90;;;;;;496596;239;29261;-74
2023/09/07 10:24:58;;;;;;;5.10;4.60;;;23.00;99.90;;;;;;496607;239;28877;-73
2023/09/07 10:26:59;;;;;;;4.50;4.10;;;23.30;99.90;;;;;;496601;239;28906;-74
2023/09/07 10:29:02;;;;;;;5.97;4.90;;;23.40;99.90;;;;;;496601;239;29358;-75
2023/09/07 10:31:05;;;;;;;5.27;4.57;;;23.50;99.90;;;;;;496581;239;29240;-73
2023/09/07 10:33:06;;;;;;;4.90;4.20;;;23.60;99.90;;;;;;496584;239;28791;-73
2023/09/07 10:35:07;;;;;;;5.50;4.40;;;23.50;99.90;;;;;;496561;239;28835;-75
2023/09/07 10:37:11;;;;;;;6.00;4.70;;;23.60;99.90;;;;;;496609;239;29339;-77
2023/09/07 10:39:13;;;;;;;9.27;4.83;;;23.70;99.90;;;;;;496570;239;29244;-75
2023/09/07 10:41:14;;;;;;;4.83;4.43;;;23.70;99.90;;;;;;496611;239;28897;-74
2023/09/07 10:43:15;;;;;;;5.10;4.50;;;23.80;99.90;;;;;;496577;239;28831;-75